createdAt,value
2018-04-10T00:00:35.825Z,96582.69
2018-04-10T00:01:41.343Z,96584.09
2018-04-10T00:02:47.204Z,96580.58
2018-04-10T00:03:52.255Z,96585.40
2018-04-10T00:04:59.075Z,96583.03
2018-04-10T00:06:04.381Z,96584.63
2018-04-10T00:07:09.926Z,96584.66
2018-04-10T00:08:15.196Z,96584.69
2018-04-10T00:09:21.034Z,96587.67
2018-04-10T00:10:26.655Z,96588.75
2018-04-10T00:11:32.029Z,96582.83
2018-04-10T00:12:36.735Z,96580.11
2018-04-10T00:13:41.542Z,96585.21
2018-04-10T00:14:46.406Z,96578.23
2018-04-10T00:15:51.643Z,96568.55
2018-04-10T00:16:56.786Z,96569.30
2018-04-10T00:18:02.776Z,96573.44
2018-04-10T00:19:08.304Z,96580.26
2018-04-10T00:20:14.114Z,96582.11
2018-04-10T00:21:19.306Z,96586.95
2018-04-10T00:22:25.670Z,96582.39
2018-04-10T00:23:30.818Z,96583.58
2018-04-10T00:24:36.839Z,96578.98
2018-04-10T00:25:42.051Z,96573.95
2018-04-10T00:26:48.054Z,96570.29
2018-04-10T00:27:53.652Z,96570.65
2018-04-10T00:28:58.500Z,96575.21
2018-04-10T00:30:04.025Z,96576.59
2018-04-10T00:31:09.328Z,96576.38
2018-04-10T00:32:14.539Z,96573.14
2018-04-10T00:33:19.810Z,96573.07
2018-04-10T00:34:25.460Z,96573.48
2018-04-10T00:35:31.147Z,96576.42
2018-04-10T00:36:36.425Z,96574.89
2018-04-10T00:37:41.968Z,96572.09
2018-04-10T00:38:47.223Z,96576.93
2018-04-10T00:39:53.361Z,96574.90
2018-04-10T00:40:58.614Z,96575.67
2018-04-10T00:42:03.965Z,96571.30
2018-04-10T00:43:09.568Z,96570.55
2018-04-10T00:44:15.175Z,96569.52
2018-04-10T00:45:20.579Z,96567.25
2018-04-10T00:46:26.071Z,96571.11
2018-04-10T00:47:31.804Z,96565.17
2018-04-10T00:48:37.109Z,96569.16
2018-04-10T00:49:43.087Z,96569.98
2018-04-10T00:50:49.167Z,96567.23
2018-04-10T00:51:54.143Z,96568.30
2018-04-10T00:53:03.940Z,96569.36
2018-04-10T00:54:09.141Z,96571.83
2018-04-10T00:55:13.870Z,96567.04
2018-04-10T00:56:18.481Z,96574.27
2018-04-10T00:57:23.400Z,96576.55
2018-04-10T00:58:28.142Z,96578.00
2018-04-10T00:59:32.901Z,96577.41
2018-04-10T01:00:38.715Z,96579.00
2018-04-10T01:01:43.537Z,96578.53
2018-04-10T01:02:49.292Z,96579.01
2018-04-10T01:03:54.409Z,96580.86
2018-04-10T01:04:59.746Z,96582.12
2018-04-10T01:06:05.084Z,96573.67
2018-04-10T01:07:10.852Z,96574.14
2018-04-10T01:08:16.177Z,96580.17
2018-04-10T01:09:23.915Z,96568.63
2018-04-10T01:10:31.067Z,96574.34
2018-04-10T01:11:37.766Z,96558.05
2018-04-10T01:12:45.508Z,96559.34
2018-04-10T01:13:53.090Z,96564.36
2018-04-10T01:15:05.176Z,96564.49
2018-04-10T01:16:18.246Z,96557.94
2018-04-10T01:17:31.413Z,96563.36
2018-04-10T01:18:38.673Z,96563.13
2018-04-10T01:19:43.869Z,96566.57
2018-04-10T01:20:49.542Z,96568.63
2018-04-10T01:21:55.340Z,96566.64
2018-04-10T01:23:01.353Z,96561.80
2018-04-10T01:24:07.006Z,96567.79
2018-04-10T01:25:13.089Z,96568.84
2018-04-10T01:26:19.122Z,96570.97
2018-04-10T01:27:24.790Z,96571.70
2018-04-10T01:28:30.303Z,96574.53
2018-04-10T01:29:36.170Z,96576.45
2018-04-10T01:30:41.414Z,96573.14
2018-04-10T01:31:49.151Z,96575.40
2018-04-10T01:32:53.835Z,96577.14
2018-04-10T01:33:58.641Z,96575.42
2018-04-10T01:35:04.013Z,96577.41
2018-04-10T01:36:09.601Z,96572.10
2018-04-10T01:37:14.767Z,96569.77
2018-04-10T01:38:19.800Z,96567.03
2018-04-10T01:39:26.363Z,96565.55
2018-04-10T01:40:31.432Z,96564.73
2018-04-10T01:41:36.913Z,96566.42
2018-04-10T01:42:41.624Z,96563.78
2018-04-10T01:43:46.780Z,96567.41
2018-04-10T01:44:52.218Z,96569.72
2018-04-10T01:45:57.407Z,96571.12
2018-04-10T01:47:04.361Z,96579.41
2018-04-10T01:48:09.881Z,96578.48
2018-04-10T01:49:14.951Z,96584.93
2018-04-10T01:50:20.560Z,96585.58
2018-04-10T01:51:26.631Z,96582.55
2018-04-10T01:52:32.139Z,96588.38
2018-04-10T01:53:37.528Z,96590.02
2018-04-10T01:54:43.167Z,96585.05
2018-04-10T01:55:50.672Z,96585.64
2018-04-10T01:56:55.372Z,96580.80
2018-04-10T01:58:00.343Z,96585.05
2018-04-10T01:59:05.234Z,96592.88
2018-04-10T02:00:13.303Z,96587.50
2018-04-10T02:01:17.988Z,96585.32
2018-04-10T02:02:22.829Z,96587.13
2018-04-10T02:03:28.224Z,96582.46
2018-04-10T02:04:33.291Z,96582.19
2018-04-10T02:05:38.331Z,96580.21
2018-04-10T02:06:44.296Z,96586.51
2018-04-10T02:07:49.768Z,96584.79
2018-04-10T02:08:55.364Z,96582.32
2018-04-10T02:12:45.365Z,96577.56
2018-04-10T02:13:50.713Z,96581.41
2018-04-10T02:14:55.589Z,96577.08
2018-04-10T02:16:00.821Z,96576.76
2018-04-10T02:17:05.933Z,96577.68
2018-04-10T02:18:11.679Z,96575.04
2018-04-10T02:19:17.709Z,96579.56
2018-04-10T02:20:22.997Z,96583.31
2018-04-10T02:21:28.105Z,96579.73
2018-04-10T02:22:33.794Z,96575.36
2018-04-10T02:23:40.080Z,96580.77
2018-04-10T02:24:46.090Z,96581.20
2018-04-10T02:25:51.216Z,96579.53
2018-04-10T02:26:56.196Z,96579.48
2018-04-10T02:28:01.871Z,96576.75
2018-04-10T02:29:07.180Z,96570.53
2018-04-10T02:30:12.192Z,96575.11
2018-04-10T02:31:17.546Z,96566.88
2018-04-10T02:32:23.755Z,96570.27
2018-04-10T02:33:28.923Z,96572.99
2018-04-10T02:34:35.171Z,96573.92
2018-04-10T02:35:40.581Z,96570.87
2018-04-10T02:36:46.516Z,96570.66
2018-04-10T02:37:52.270Z,96567.67
2018-04-10T02:38:57.731Z,96563.89
2018-04-10T02:40:03.378Z,96562.31
2018-04-10T02:41:09.387Z,96564.83
2018-04-10T02:42:14.481Z,96570.03
2018-04-10T02:43:19.736Z,96573.95
2018-04-10T02:44:25.158Z,96570.70
2018-04-10T02:45:30.390Z,96572.08
2018-04-10T02:46:36.599Z,96572.98
2018-04-10T02:47:42.189Z,96569.33
2018-04-10T02:48:47.582Z,96569.56
2018-04-10T02:49:53.918Z,96563.02
2018-04-10T02:50:58.866Z,96566.98
2018-04-10T02:52:04.199Z,96565.91
2018-04-10T02:53:09.245Z,96568.09
2018-04-10T02:54:14.480Z,96569.94
2018-04-10T02:55:20.329Z,96572.89
2018-04-10T02:56:26.155Z,96567.19
2018-04-10T02:57:31.494Z,96568.45
2018-04-10T02:58:37.588Z,96571.07
2018-04-10T02:59:43.172Z,96571.91
2018-04-10T03:00:47.961Z,96578.80
2018-04-10T03:01:53.346Z,96573.66
2018-04-10T03:02:58.670Z,96574.73
2018-04-10T03:04:04.397Z,96573.42
2018-04-10T03:05:09.810Z,96573.15
2018-04-10T03:06:15.923Z,96571.95
2018-04-10T03:07:21.112Z,96571.34
2018-04-10T03:08:27.726Z,96578.24
2018-04-10T03:09:32.969Z,96574.44
2018-04-10T03:10:38.234Z,96573.61
2018-04-10T03:11:43.875Z,96576.80
2018-04-10T03:12:49.684Z,96573.58
2018-04-10T03:13:55.191Z,96573.45
2018-04-10T03:15:00.713Z,96576.09
2018-04-10T03:16:05.981Z,96575.03
2018-04-10T03:17:12.340Z,96571.08
2018-04-10T03:18:17.712Z,96570.74
2018-04-10T03:19:23.757Z,96572.84
2018-04-10T03:20:28.670Z,96574.58
2018-04-10T03:21:34.369Z,96576.70
2018-04-10T03:22:39.738Z,96575.05
2018-04-10T03:23:45.170Z,96573.98
2018-04-10T03:24:50.622Z,96576.88
2018-04-10T03:25:56.308Z,96574.89
2018-04-10T03:27:02.076Z,96577.41
2018-04-10T03:28:07.795Z,96575.29
2018-04-10T03:29:12.908Z,96579.94
2018-04-10T03:30:18.785Z,96576.00
2018-04-10T03:31:24.431Z,96575.55
2018-04-10T03:32:29.402Z,96579.14
2018-04-10T03:33:34.818Z,96582.02
2018-04-10T03:34:40.754Z,96576.95
2018-04-10T03:35:46.084Z,96576.81
2018-04-10T03:36:51.456Z,96581.88
2018-04-10T03:37:56.768Z,96580.09
2018-04-10T03:39:03.277Z,96576.06
2018-04-10T03:40:08.226Z,96575.94
2018-04-10T03:41:14.253Z,96580.53
2018-04-10T03:42:19.989Z,96576.92
2018-04-10T03:43:25.192Z,96575.31
2018-04-10T03:44:30.968Z,96573.52
2018-04-10T03:45:35.925Z,96578.28
2018-04-10T03:46:41.380Z,96570.30
2018-04-10T03:47:47.246Z,96575.27
2018-04-10T03:48:54.698Z,96581.25
2018-04-10T03:49:59.223Z,96578.34
2018-04-10T03:51:04.182Z,96588.61
2018-04-10T03:52:09.008Z,96581.96
2018-04-10T03:53:14.406Z,96583.03
2018-04-10T03:54:20.114Z,96586.55
2018-04-10T03:55:25.147Z,96586.09
2018-04-10T03:56:30.257Z,96585.61
2018-04-10T03:57:36.365Z,96585.54
2018-04-10T03:58:42.361Z,96583.00
2018-04-10T03:59:48.094Z,96587.66
2018-04-10T04:00:54.224Z,96593.60
2018-04-10T04:01:59.988Z,96589.61
2018-04-10T04:03:05.143Z,96592.76
2018-04-10T04:04:11.239Z,96593.97
2018-04-10T04:05:16.180Z,96587.80
2018-04-10T04:06:23.381Z,96586.30
2018-04-10T04:07:29.598Z,96585.41
2018-04-10T04:08:34.302Z,96576.83
2018-04-10T04:09:39.540Z,96582.96
2018-04-10T04:10:44.657Z,96579.16
2018-04-10T04:11:50.398Z,96578.45
2018-04-10T04:12:55.369Z,96583.95
2018-04-10T04:14:00.866Z,96580.36
2018-04-10T04:15:06.637Z,96577.97
2018-04-10T04:16:15.395Z,96574.47
2018-04-10T04:17:26.001Z,96579.21
2018-04-10T04:18:34.833Z,96576.59
2018-04-10T04:21:49.209Z,96579.36
2018-04-10T04:22:55.217Z,96583.58
2018-04-10T04:24:01.103Z,96579.89
2018-04-10T04:25:07.720Z,96581.84
2018-04-10T04:26:12.941Z,96584.20
2018-04-10T04:27:18.733Z,96583.06
2018-04-10T04:28:24.226Z,96577.64
2018-04-10T04:29:30.134Z,96583.73
2018-04-10T04:30:35.356Z,96585.00
2018-04-10T04:31:40.741Z,96587.27
2018-04-10T04:32:46.497Z,96585.97
2018-04-10T04:33:51.750Z,96585.75
2018-04-10T04:34:57.255Z,96576.84
2018-04-10T04:36:03.175Z,96578.94
2018-04-10T04:37:08.197Z,96575.54
2018-04-10T04:38:13.931Z,96578.56
2018-04-10T04:39:19.547Z,96580.32
2018-04-10T04:40:24.830Z,96582.26
2018-04-10T04:41:31.101Z,96576.55
2018-04-10T04:42:36.489Z,96577.41
2018-04-10T04:43:41.894Z,96584.25
2018-04-10T04:44:48.086Z,96583.22
2018-04-10T04:45:53.447Z,96579.13
2018-04-10T04:46:59.069Z,96579.98
2018-04-10T04:48:04.251Z,96580.82
2018-04-10T04:49:10.500Z,96580.71
2018-04-10T04:50:16.120Z,96585.22
2018-04-10T04:51:21.773Z,96578.60
2018-04-10T04:52:27.327Z,96584.81
2018-04-10T04:53:32.537Z,96583.58
2018-04-10T04:54:37.664Z,96582.05
2018-04-10T04:55:43.417Z,96581.92
2018-04-10T04:56:49.287Z,96588.88
2018-04-10T04:57:54.583Z,96585.80
2018-04-10T04:59:00.128Z,96581.92
2018-04-10T05:00:06.458Z,96593.16
2018-04-10T05:01:11.878Z,96591.05
2018-04-10T05:02:16.808Z,96591.78
2018-04-10T05:03:22.458Z,96594.41
2018-04-10T05:04:28.039Z,96596.80
2018-04-10T05:05:34.246Z,96601.83
2018-04-10T05:06:39.544Z,96601.83
2018-04-10T05:07:45.762Z,96608.63
2018-04-10T05:08:50.805Z,96606.20
2018-04-10T05:09:55.842Z,96607.36
2018-04-10T05:11:04.910Z,96607.59
2018-04-10T05:12:17.355Z,96613.47
2018-04-10T05:13:23.634Z,96606.85
2018-04-10T05:14:33.495Z,96601.78
2018-04-10T05:15:40.077Z,96602.34
2018-04-10T05:16:55.066Z,96602.12
2018-04-10T05:18:07.213Z,96605.88
2018-04-10T05:19:23.276Z,96611.13
2018-04-10T05:20:35.138Z,96613.25
2018-04-10T05:21:42.980Z,96612.48
2018-04-10T05:22:48.930Z,96610.45
2018-04-10T05:23:54.297Z,96608.17
2018-04-10T05:25:00.508Z,96606.90
2018-04-10T05:26:07.078Z,96607.13
2018-04-10T05:27:12.557Z,96607.23
2018-04-10T05:28:19.245Z,96613.45
2018-04-10T05:29:24.548Z,96617.84
2018-04-10T05:30:30.477Z,96611.57
2018-04-10T05:31:35.956Z,96609.45
2018-04-10T05:32:42.502Z,96612.16
2018-04-10T05:33:48.194Z,96610.97
2018-04-10T05:34:52.914Z,96613.88
2018-04-10T05:35:58.195Z,96617.70
2018-04-10T05:37:04.126Z,96618.03
2018-04-10T05:38:09.530Z,96621.62
2018-04-10T05:39:15.448Z,96621.10
2018-04-10T05:40:20.518Z,96615.78
2018-04-10T05:41:26.362Z,96620.94
2018-04-10T05:42:31.733Z,96624.33
2018-04-10T05:43:37.844Z,96621.05
2018-04-10T05:44:43.819Z,96618.94
2018-04-10T05:45:49.457Z,96624.70
2018-04-10T05:46:54.575Z,96620.25
2018-04-10T05:47:59.452Z,96621.69
2018-04-10T05:49:04.974Z,96623.27
2018-04-10T05:50:10.734Z,96624.26
2018-04-10T05:51:16.105Z,96625.67
2018-04-10T05:52:21.652Z,96630.42
2018-04-10T05:53:26.607Z,96628.45
2018-04-10T05:54:32.451Z,96636.83
2018-04-10T05:55:38.451Z,96632.84
2018-04-10T05:56:43.557Z,96635.00
2018-04-10T05:57:49.109Z,96635.67
2018-04-10T05:58:56.054Z,96639.91
2018-04-10T06:00:01.459Z,96638.01
2018-04-10T06:01:06.796Z,96639.95
2018-04-10T06:02:12.556Z,96643.80
2018-04-10T06:03:24.390Z,96641.92
2018-04-10T06:04:29.849Z,96644.59
2018-04-10T06:05:35.173Z,96645.27
2018-04-10T06:06:39.887Z,96643.56
2018-04-10T06:07:48.260Z,96649.85
2018-04-10T06:08:56.049Z,96651.84
2018-04-10T06:10:01.020Z,96646.08
2018-04-10T06:11:07.735Z,96644.45
2018-04-10T06:12:13.180Z,96652.23
2018-04-10T06:13:19.188Z,96647.52
2018-04-10T06:14:24.418Z,96643.19
2018-04-10T07:27:46.452Z,96660.55
2018-04-10T07:28:51.570Z,96658.81
2018-04-10T07:29:57.195Z,96661.97
2018-04-10T07:31:03.363Z,96660.97
2018-04-10T07:32:08.296Z,96657.01
2018-04-10T07:33:13.396Z,96662.52
2018-04-10T07:34:18.995Z,96666.70
2018-04-10T07:35:27.045Z,96666.38
2018-04-10T07:36:32.485Z,96668.23
2018-04-10T07:37:37.638Z,96666.86
2018-04-10T07:38:42.515Z,96662.22
2018-04-10T08:17:26.827Z,96699.09
2018-04-10T08:18:32.362Z,96701.31
2018-04-10T08:19:37.928Z,96697.47
2018-04-10T08:20:43.555Z,96701.41
2018-04-10T08:21:49.181Z,96708.06
2018-04-10T08:22:54.689Z,96705.39
2018-04-10T08:36:24.048Z,96720.30
2018-04-10T08:37:30.333Z,96724.34
2018-04-10T08:38:37.020Z,96715.94
2018-04-10T08:39:43.474Z,96722.85
2018-04-10T08:40:50.102Z,96723.50
2018-04-10T08:41:56.447Z,96717.52
2018-04-10T08:55:27.741Z,96726.80
2018-04-10T08:56:32.405Z,96722.18
2018-04-10T08:57:37.179Z,96726.91
2018-04-10T08:58:42.470Z,96732.14
2018-04-10T08:59:47.753Z,96727.30
2018-04-10T09:00:53.402Z,96730.65
2018-04-10T09:01:59.098Z,96735.84
2018-04-10T09:03:04.020Z,96732.48
2018-04-10T09:04:10.815Z,96729.53
2018-04-10T09:05:15.593Z,96722.42
2018-04-10T09:06:20.559Z,96722.28
2018-04-10T09:07:25.922Z,96718.81
2018-04-10T09:08:30.878Z,96708.00
2018-04-10T09:09:35.899Z,96717.94
2018-04-10T09:10:40.945Z,96718.37
2018-04-10T09:11:46.471Z,96717.02
2018-04-10T09:12:52.138Z,96712.93
2018-04-10T09:13:57.173Z,96718.95
2018-04-10T09:15:01.888Z,96720.55
2018-04-10T09:16:07.394Z,96722.45
2018-04-10T09:17:12.097Z,96716.63
2018-04-10T09:18:17.841Z,96719.89
2018-04-10T09:19:23.075Z,96710.03
2018-04-10T09:20:28.949Z,96711.94
2018-04-10T09:21:33.781Z,96716.83
2018-04-10T09:22:40.457Z,96711.03
2018-04-10T09:23:45.610Z,96714.22
2018-04-10T09:24:51.394Z,96706.91
2018-04-10T09:25:56.721Z,96708.31
2018-04-10T09:27:02.003Z,96704.63
2018-04-10T09:28:07.697Z,96709.45
2018-04-10T09:29:12.774Z,96708.89
2018-04-10T09:30:18.628Z,96708.45
2018-04-10T09:31:24.597Z,96713.22
2018-04-10T09:32:30.628Z,96717.34
2018-04-10T09:33:36.405Z,96712.88
2018-04-10T09:34:43.290Z,96717.38
2018-04-10T09:35:48.354Z,96717.13
2018-04-10T09:36:54.381Z,96713.19
2018-04-10T09:37:59.327Z,96720.26
2018-04-10T09:39:06.015Z,96714.95
2018-04-10T09:40:11.725Z,96716.02
2018-04-10T09:41:16.751Z,96718.08
2018-04-10T09:42:24.369Z,96717.07
2018-04-10T09:43:29.076Z,96710.97
2018-04-10T09:44:34.747Z,96714.50
2018-04-10T09:45:40.069Z,96715.89
2018-04-10T09:46:45.326Z,96714.00
2018-04-10T09:47:52.914Z,96713.14
2018-04-10T09:48:57.662Z,96718.22
2018-04-10T09:50:02.726Z,96716.27
2018-04-10T09:51:07.672Z,96711.04
2018-04-10T09:52:12.770Z,96713.50
2018-04-10T09:53:18.585Z,96709.85
2018-04-10T09:54:24.538Z,96707.34
2018-04-10T09:55:29.733Z,96704.87
2018-04-10T09:56:47.086Z,96710.81
2018-04-10T09:57:57.385Z,96705.48
2018-04-10T09:59:10.242Z,96705.24
2018-04-10T10:00:23.243Z,96700.47
2018-04-10T10:01:29.486Z,96705.70
2018-04-10T10:02:35.531Z,96697.38
2018-04-10T10:03:40.491Z,96706.50
2018-04-10T10:04:45.868Z,96703.82
2018-04-10T10:05:52.173Z,96705.70
2018-04-10T10:06:58.377Z,96698.69
2018-04-10T10:08:03.491Z,96698.36
2018-04-10T10:09:09.139Z,96700.27
2018-04-10T10:10:14.000Z,96701.16
2018-04-10T10:11:19.816Z,96703.55
2018-04-10T10:12:25.883Z,96705.72
2018-04-10T10:13:31.656Z,96701.55
2018-04-10T10:14:37.387Z,96701.63
2018-04-10T10:15:42.323Z,96703.77
2018-04-10T10:23:22.761Z,96700.92
2018-04-10T10:24:29.849Z,96702.52
2018-04-10T10:25:35.762Z,96699.56
2018-04-10T10:26:41.443Z,96703.84
2018-04-10T10:27:47.080Z,96707.87
2018-04-10T10:28:54.208Z,96707.23
2018-04-10T10:29:59.815Z,96701.07
2018-04-10T10:31:04.764Z,96707.10
2018-04-10T10:32:09.786Z,96708.95
2018-04-10T10:33:14.530Z,96709.72
2018-04-10T10:34:19.199Z,96699.95
2018-04-10T10:35:25.262Z,96708.22
2018-04-10T10:36:30.445Z,96700.76
2018-04-10T10:37:35.137Z,96709.91
2018-04-10T10:38:39.760Z,96703.17
2018-04-10T10:39:44.839Z,96702.57
2018-04-10T10:40:49.672Z,96707.60
2018-04-10T10:41:54.447Z,96705.50
2018-04-10T10:42:59.530Z,96697.29
2018-04-10T10:44:04.975Z,96692.31
2018-04-10T10:45:11.125Z,96700.09
2018-04-10T10:46:17.816Z,96696.66
2018-04-10T10:47:22.504Z,96699.52
2018-04-10T10:48:27.260Z,96695.64
2018-04-10T10:49:32.475Z,96702.78
2018-04-10T10:50:37.624Z,96701.20
2018-04-10T10:51:42.330Z,96700.55
2018-04-10T10:52:54.406Z,96694.53
2018-04-10T10:53:59.155Z,96693.84
2018-04-10T10:55:03.779Z,96700.69
2018-04-10T10:56:09.192Z,96699.92
2018-04-10T10:57:13.921Z,96701.62
2018-04-10T10:58:18.587Z,96702.11
2018-04-10T10:59:23.339Z,96694.48
2018-04-10T11:00:28.211Z,96694.66
2018-04-10T11:01:33.012Z,96695.83
2018-04-10T11:02:38.369Z,96691.46
2018-04-10T11:03:42.983Z,96699.41
2018-04-10T11:04:47.691Z,96685.16
2018-04-10T11:05:52.635Z,96690.18
2018-04-10T11:06:57.438Z,96688.11
2018-04-10T11:08:02.057Z,96694.09
2018-04-10T11:09:07.187Z,96678.61
2018-04-10T11:10:12.030Z,96683.23
2018-04-10T11:11:18.438Z,96680.25
2018-04-10T11:12:23.010Z,96681.88
2018-04-10T11:13:27.699Z,96682.45
2018-04-10T11:14:32.394Z,96676.47
2018-04-10T11:15:38.981Z,96676.23
2018-04-10T11:16:45.531Z,96673.83
2018-04-10T11:17:50.531Z,96686.93
2018-04-10T11:18:55.859Z,96675.31
2018-04-10T11:20:01.918Z,96673.27
2018-04-10T11:21:06.660Z,96677.70
2018-04-10T11:22:11.702Z,96672.61
2018-04-10T11:23:16.637Z,96673.09
2018-04-10T11:24:23.178Z,96675.36
2018-04-10T11:25:31.056Z,96674.45
2018-04-10T11:26:36.090Z,96664.88
2018-04-10T11:27:43.298Z,96670.67
2018-04-10T11:28:48.984Z,96664.34
2018-04-10T11:29:54.428Z,96663.24
2018-04-10T11:30:59.156Z,96655.61
2018-04-10T11:32:04.734Z,96661.46
2018-04-10T11:33:10.173Z,96658.88
2018-04-10T11:34:15.080Z,96655.01
2018-04-10T11:35:20.139Z,96654.09
2018-04-10T11:36:24.671Z,96657.08
2018-04-10T11:37:29.743Z,96654.20
2018-04-10T11:38:34.418Z,96657.27
2018-04-10T11:39:40.152Z,96650.63
2018-04-10T11:40:44.765Z,96649.08
2018-04-10T11:41:49.628Z,96646.33
2018-04-10T11:42:56.774Z,96649.48
2018-04-10T11:44:01.352Z,96648.34
2018-04-10T11:45:06.242Z,96645.87
2018-04-10T11:46:12.081Z,96648.63
2018-04-10T11:47:16.913Z,96640.59
2018-04-10T11:48:22.038Z,96638.28
2018-04-10T11:49:26.734Z,96646.09
2018-04-10T11:50:31.751Z,96637.09
2018-04-10T11:51:36.345Z,96635.16
2018-04-10T11:52:41.004Z,96639.53
2018-04-10T11:53:46.215Z,96632.26
2018-04-10T11:54:51.945Z,96627.31
2018-04-10T11:55:56.606Z,96631.00
2018-04-10T11:57:01.848Z,96628.95
2018-04-10T11:58:06.642Z,96635.55
2018-04-10T11:59:13.825Z,96628.47
2018-04-10T12:00:22.203Z,96631.31
2018-04-10T12:01:28.102Z,96632.17
2018-04-10T12:02:34.235Z,96630.83
2018-04-10T12:03:40.370Z,96626.91
2018-04-10T12:04:45.819Z,96620.28
2018-04-10T12:05:50.415Z,96626.78
2018-04-10T12:06:55.773Z,96623.77
2018-04-10T12:08:03.962Z,96622.02
2018-04-10T12:09:09.124Z,96625.20
2018-04-10T12:10:13.741Z,96628.98
2018-04-10T12:11:18.698Z,96609.95
2018-04-10T12:12:23.518Z,96621.20
2018-04-10T12:13:28.386Z,96614.89
2018-04-10T12:14:32.986Z,96613.34
2018-04-10T12:15:38.550Z,96609.64
2018-04-10T12:16:43.259Z,96603.56
2018-04-10T12:17:48.421Z,96602.63
2018-04-10T12:18:53.584Z,96594.45
2018-04-10T12:19:59.187Z,96600.78
2018-04-10T12:21:06.047Z,96600.17
2018-04-10T12:22:11.392Z,96601.19
2018-04-10T12:23:16.064Z,96605.72
2018-04-10T12:24:22.232Z,96599.39
2018-04-10T12:25:28.477Z,96597.05
2018-04-10T12:26:33.401Z,96595.72
2018-04-10T12:27:42.490Z,96606.28
2018-04-10T12:28:51.546Z,96598.48
2018-04-10T12:29:58.326Z,96607.45
2018-04-10T12:31:06.194Z,96605.09
2018-04-10T12:32:18.361Z,96601.63
2018-04-10T12:33:23.234Z,96596.41
2018-04-10T12:34:28.432Z,96589.66
2018-04-10T12:35:34.716Z,96590.70
2018-04-10T12:36:39.589Z,96588.96
2018-04-10T12:37:44.392Z,96581.59
2018-04-10T12:38:49.426Z,96576.39
2018-04-10T12:39:54.034Z,96581.17
2018-04-10T12:40:59.045Z,96580.83
2018-04-10T12:42:05.401Z,96581.83
2018-04-10T12:43:10.156Z,96581.21
2018-04-10T12:44:14.915Z,96574.03
2018-04-10T12:45:20.998Z,96569.98
2018-04-10T12:46:25.667Z,96565.50
2018-04-10T12:47:30.612Z,96564.09
2018-04-10T12:48:36.932Z,96560.38
2018-04-10T12:49:44.075Z,96560.20
2018-04-10T19:00:59.236Z,96689.39
2018-04-10T19:02:03.892Z,96686.53
2018-04-10T19:03:10.298Z,96692.58
2018-04-10T19:04:17.281Z,96683.77
2018-04-10T19:05:21.962Z,96683.94
2018-04-10T19:06:26.627Z,96686.86
2018-04-10T19:07:31.447Z,96681.58
2018-04-10T19:08:40.499Z,96680.05
2018-04-10T19:09:45.842Z,96688.33
2018-04-10T19:10:50.451Z,96687.47
2018-04-10T19:11:55.152Z,96691.58
2018-04-10T19:12:59.873Z,96688.78
2018-04-10T19:14:04.884Z,96684.73
2018-04-10T19:15:09.541Z,96685.34
2018-04-10T19:16:14.226Z,96681.55
2018-04-10T19:17:18.875Z,96680.62
2018-04-10T19:18:23.674Z,96688.73
2018-04-10T19:19:28.381Z,96683.81
2018-04-10T19:20:33.398Z,96684.59
2018-04-10T19:21:38.146Z,96680.70
2018-04-10T19:22:43.002Z,96686.63
2018-04-10T19:23:47.805Z,96681.61
2018-04-10T19:24:52.552Z,96688.72
2018-04-10T19:25:59.206Z,96685.33
2018-04-10T19:27:04.544Z,96689.11
2018-04-10T19:28:09.455Z,96689.84
2018-04-10T19:29:14.225Z,96698.14
2018-04-10T19:30:18.976Z,96700.33
2018-04-10T19:31:23.633Z,96700.70
2018-04-10T19:32:28.385Z,96707.00
2018-04-10T19:33:33.412Z,96714.84
2018-04-10T19:34:38.205Z,96715.57
2018-04-10T19:35:44.386Z,96718.69
2018-04-10T19:36:49.177Z,96715.49
2018-04-10T19:37:53.846Z,96725.59
2018-04-10T19:38:58.519Z,96730.44
2018-04-10T19:40:03.583Z,96736.88
2018-04-10T19:41:08.265Z,96736.95
2018-04-10T19:42:12.969Z,96730.77
2018-04-10T19:43:17.622Z,96734.16
2018-04-10T19:44:22.379Z,96740.40
2018-04-10T19:45:27.063Z,96758.34
2018-04-10T19:46:32.091Z,96759.83
2018-04-10T19:47:36.881Z,96759.69
2018-04-10T19:48:41.902Z,96755.91
2018-04-10T19:49:46.482Z,96757.70
2018-04-10T19:50:51.224Z,96752.25
2018-04-10T19:51:56.854Z,96753.77
2018-04-10T19:53:01.884Z,96756.03
2018-04-10T19:54:06.651Z,96751.38
2018-04-10T19:55:11.417Z,96752.77
2018-04-10T19:56:16.214Z,96752.63
2018-04-10T19:57:21.030Z,96752.49
2018-04-10T19:58:25.838Z,96754.55
2018-04-10T19:59:30.762Z,96752.29
2018-04-10T20:00:35.401Z,96746.71
2018-04-10T20:01:40.008Z,96748.77
2018-04-10T20:02:44.722Z,96753.09
2018-04-10T20:03:49.438Z,96754.58
2018-04-10T20:04:54.076Z,96748.66
2018-04-10T20:05:59.038Z,96752.97
2018-04-10T20:07:03.845Z,96751.70
2018-04-10T20:08:08.646Z,96753.06
2018-04-10T20:09:13.359Z,96746.94
2018-04-10T20:10:18.226Z,96747.52
2018-04-10T20:11:23.047Z,96748.18
2018-04-10T20:12:28.141Z,96748.18
2018-04-10T20:13:33.069Z,96746.27
2018-04-10T20:14:37.859Z,96745.34
2018-04-10T20:15:42.662Z,96745.94
2018-04-10T20:16:47.412Z,96741.53
2018-04-10T20:17:52.186Z,96736.78
2018-04-10T20:18:57.406Z,96736.75
2018-04-10T20:20:02.314Z,96736.02
2018-04-10T20:21:07.126Z,96741.48
2018-04-10T20:22:11.735Z,96736.29
2018-04-10T20:23:16.329Z,96735.29
2018-04-10T20:24:20.897Z,96734.78
2018-04-10T20:25:26.540Z,96722.50
2018-04-10T20:26:31.087Z,96724.03
2018-04-10T20:27:35.712Z,96718.70
2018-04-10T20:28:40.267Z,96712.27
2018-04-10T20:29:44.844Z,96711.48
2018-04-10T20:30:49.562Z,96711.28
2018-04-10T20:31:54.678Z,96707.77
2018-04-10T20:32:59.555Z,96701.03
2018-04-10T20:34:07.571Z,96704.88
2018-04-10T20:35:12.238Z,96699.98
2018-04-10T20:36:16.856Z,96700.71
2018-04-10T20:37:21.489Z,96696.48
2018-04-10T20:38:26.386Z,96699.33
2018-04-10T20:39:31.772Z,96696.55
2018-04-10T20:40:36.496Z,96699.98
2018-04-10T20:41:41.194Z,96700.20
2018-04-10T20:42:45.702Z,96699.78
2018-04-10T20:43:50.280Z,96703.52
2018-04-10T20:44:55.908Z,96700.93
2018-04-10T20:46:00.740Z,96699.33
2018-04-10T20:47:05.512Z,96701.06
2018-04-10T20:48:10.314Z,96697.34
2018-04-10T20:49:14.959Z,96700.14
2018-04-10T20:50:19.577Z,96696.81
2018-04-10T20:51:24.477Z,96702.41
2018-04-10T20:52:29.073Z,96709.61
2018-04-10T20:53:33.659Z,96710.53
2018-04-10T20:54:38.504Z,96717.91
2018-04-10T20:55:43.349Z,96718.70
2018-04-10T20:56:48.112Z,96724.81
2018-04-10T20:57:53.122Z,96725.52
2018-04-10T20:58:57.919Z,96726.98
2018-04-10T21:00:02.697Z,96725.33
2018-04-10T21:01:07.421Z,96724.14
2018-04-10T21:02:12.670Z,96724.07
2018-04-10T21:03:18.239Z,96719.29
2018-04-10T21:04:24.245Z,96717.95
2018-04-10T21:05:29.127Z,96719.84
2018-04-10T21:06:33.776Z,96716.59
2018-04-10T21:07:38.525Z,96715.30
2018-04-10T21:08:43.327Z,96716.03
2018-04-10T21:09:48.207Z,96713.24
2018-04-10T21:10:53.224Z,96709.28
2018-04-10T21:11:57.953Z,96709.55
2018-04-10T21:13:03.054Z,96710.47
2018-04-10T21:14:07.765Z,96714.34
2018-04-10T21:15:12.463Z,96714.52
2018-04-10T21:16:17.154Z,96716.32
2018-04-10T21:17:22.385Z,96718.32
2018-04-10T21:18:27.089Z,96720.84
2018-04-10T21:19:31.932Z,96717.45
2018-04-10T21:20:37.056Z,96712.74
2018-04-10T21:21:41.828Z,96715.86
2018-04-10T21:22:46.543Z,96715.52
2018-04-10T21:23:51.574Z,96715.93
2018-04-10T21:24:56.289Z,96716.94
2018-04-10T21:26:01.113Z,96720.81
2018-04-10T21:27:06.770Z,96720.19